createdAt,value
2023-09-28T00:00:47.552Z,16.78
2023-09-28T00:05:48.964Z,16.79
2023-09-28T00:10:50.497Z,16.80
2023-09-28T00:15:51.903Z,16.58
2023-09-28T00:20:53.325Z,16.60
2023-09-28T00:25:54.870Z,16.62
2023-09-28T00:30:56.369Z,16.68
2023-09-28T00:35:57.967Z,16.65
2023-09-28T00:40:59.449Z,16.73
2023-09-28T00:46:01.605Z,16.76
2023-09-28T00:51:05.077Z,16.77
2023-09-28T00:56:08.839Z,16.81
2023-09-28T01:01:11.664Z,16.83
2023-09-28T01:06:13.881Z,16.85
2023-09-28T01:11:15.270Z,16.85
2023-09-28T01:16:16.688Z,16.87
2023-09-28T01:21:20.003Z,16.88
2023-09-28T01:26:21.426Z,16.76
2023-09-28T01:31:22.942Z,16.65
2023-09-28T01:36:24.339Z,16.78
2023-09-28T01:41:25.770Z,16.83
2023-09-28T01:46:27.169Z,16.83
2023-09-28T01:51:28.702Z,16.85
2023-09-28T01:56:30.135Z,16.88
2023-09-28T02:01:32.983Z,16.88
2023-09-28T02:06:34.518Z,16.87
2023-09-28T02:11:35.937Z,16.85
2023-09-28T02:16:37.328Z,16.83
2023-09-28T02:21:38.792Z,16.84
2023-09-28T02:26:40.263Z,16.88
2023-09-28T02:31:42.622Z,16.89
2023-09-28T02:36:44.231Z,16.93
2023-09-28T02:41:45.647Z,16.95
2023-09-28T02:46:47.050Z,16.97
2023-09-28T02:51:49.250Z,16.96
2023-09-28T02:56:51.226Z,16.59
2023-09-28T03:01:53.232Z,16.61
2023-09-28T03:06:54.908Z,16.71
2023-09-28T03:11:56.469Z,16.79
2023-09-28T03:16:57.993Z,16.81
2023-09-28T03:21:59.915Z,16.87
2023-09-28T03:27:10.002Z,16.88
2023-09-28T03:32:12.465Z,16.95
2023-09-28T03:37:19.747Z,16.98
2023-09-28T03:42:21.129Z,16.97
2023-09-28T03:47:22.513Z,17.01
2023-09-28T03:52:23.893Z,16.99
2023-09-28T03:57:25.267Z,16.91
2023-09-28T04:02:28.272Z,16.93
2023-09-28T04:07:30.188Z,16.87
2023-09-28T04:12:31.622Z,16.80
2023-09-28T04:17:35.584Z,16.72
2023-09-28T04:22:37.332Z,16.62
2023-09-28T04:27:39.593Z,16.57
2023-09-28T04:32:41.139Z,16.60
2023-09-28T04:37:42.789Z,16.55
2023-09-28T04:42:44.249Z,16.43
2023-09-28T04:47:45.698Z,16.41
2023-09-28T04:52:47.244Z,16.35
2023-09-28T04:57:48.674Z,16.30
2023-09-28T05:02:50.651Z,16.24
2023-09-28T05:07:53.146Z,16.21
2023-09-28T05:12:55.071Z,16.12
2023-09-28T05:17:56.765Z,16.08
2023-09-28T05:22:58.345Z,15.91
2023-09-28T05:27:59.948Z,15.78
2023-09-28T05:33:01.377Z,15.93
2023-09-28T05:38:03.450Z,15.94
2023-09-28T05:43:04.833Z,15.98
2023-09-28T05:48:06.619Z,15.98
2023-09-28T05:53:08.114Z,15.97
2023-09-28T05:58:09.607Z,15.98
2023-09-28T06:03:11.032Z,15.97
2023-09-28T06:08:13.002Z,15.93
2023-09-28T06:13:14.375Z,15.95
2023-09-28T06:18:15.721Z,15.97
2023-09-28T06:23:18.152Z,16.02
2023-09-28T06:28:20.066Z,16.06
2023-09-28T06:33:27.573Z,15.94
2023-09-28T06:38:28.974Z,16.12
2023-09-28T06:43:30.880Z,16.26
2023-09-28T06:48:34.381Z,16.42
2023-09-28T06:53:36.322Z,16.60
2023-09-28T06:58:37.730Z,16.72
2023-09-28T07:03:39.179Z,16.94
2023-09-28T07:08:40.582Z,17.18
2023-09-28T07:13:42.158Z,17.39
2023-09-28T07:18:43.727Z,17.59
2023-09-28T07:23:45.210Z,17.84
2023-09-28T07:28:46.882Z,17.98
2023-09-28T07:33:49.517Z,18.17
2023-09-28T07:38:51.365Z,18.33
2023-09-28T07:43:53.036Z,18.56
2023-09-28T07:48:57.311Z,18.79
2023-09-28T07:53:58.675Z,19.02
2023-09-28T07:59:00.908Z,19.24
2023-09-28T08:04:02.441Z,19.43
2023-09-28T08:09:04.118Z,19.60
2023-09-28T08:14:06.449Z,19.77
2023-09-28T08:19:07.889Z,19.94
2023-09-28T08:24:11.312Z,20.03
2023-09-28T08:29:13.641Z,20.23
2023-09-28T08:34:19.304Z,20.37
2023-09-28T08:39:26.668Z,20.55
2023-09-28T08:44:31.123Z,20.67
2023-09-28T08:49:35.543Z,20.81
2023-09-28T08:54:37.687Z,20.98
2023-09-28T08:59:40.539Z,21.16
2023-09-28T09:04:43.553Z,21.31
2023-09-28T09:09:47.482Z,21.48
2023-09-28T09:14:49.101Z,21.61
2023-09-28T09:19:51.065Z,21.78
2023-09-28T09:24:56.476Z,21.85
2023-09-28T09:30:01.517Z,22.01
2023-09-28T09:35:04.758Z,22.20
2023-09-28T09:40:13.667Z,22.36
2023-09-28T09:45:15.143Z,22.57
2023-09-28T09:50:18.846Z,22.74
2023-09-28T09:55:21.354Z,22.90
2023-09-28T10:00:24.304Z,22.86
2023-09-28T10:05:28.536Z,23.08
2023-09-28T10:10:31.493Z,23.36
2023-09-28T10:15:34.595Z,23.54
2023-09-28T10:20:37.153Z,23.87
2023-09-28T10:25:54.476Z,24.23
2023-09-28T10:31:08.923Z,24.72
2023-09-28T10:36:14.032Z,24.91
2023-09-28T10:41:18.113Z,24.91
2023-09-28T10:46:19.770Z,25.16
2023-09-28T10:51:21.162Z,25.32
2023-09-28T10:56:22.625Z,25.40
2023-09-28T11:01:24.031Z,25.28
2023-09-28T11:06:25.661Z,25.53
2023-09-28T11:11:27.586Z,25.88
2023-09-28T11:16:29.169Z,26.51
2023-09-28T11:21:31.929Z,27.15
2023-09-28T11:26:34.823Z,27.59
2023-09-28T11:31:38.844Z,27.64
2023-09-28T11:36:41.712Z,27.82
2023-09-28T11:42:00.362Z,27.90
2023-09-28T11:47:03.067Z,27.66
2023-09-28T11:52:05.190Z,27.69
2023-09-28T11:57:08.994Z,28.07
2023-09-28T12:02:10.632Z,28.83
2023-09-28T12:07:12.562Z,28.95
2023-09-28T12:12:13.967Z,29.00
2023-09-28T12:17:16.005Z,28.90
2023-09-28T12:22:17.987Z,29.13
2023-09-28T12:27:20.516Z,29.46
2023-09-28T12:32:21.978Z,29.40
2023-09-28T12:37:23.441Z,29.01
2023-09-28T12:42:25.741Z,29.26
2023-09-28T12:47:27.311Z,29.66
2023-09-28T12:52:29.776Z,29.76
2023-09-28T12:57:31.275Z,30.07
2023-09-28T13:02:32.779Z,29.98
2023-09-28T13:07:35.292Z,30.31
2023-09-28T13:12:36.868Z,30.41
2023-09-28T13:17:39.496Z,30.43
2023-09-28T13:22:41.036Z,30.37
2023-09-28T13:27:42.452Z,30.63
2023-09-28T13:32:43.879Z,30.47
2023-09-28T13:37:46.029Z,30.47
2023-09-28T13:42:47.521Z,30.44
2023-09-28T13:47:49.038Z,30.64
2023-09-28T13:52:50.951Z,30.87
2023-09-28T13:57:52.475Z,31.23
2023-09-28T14:02:55.642Z,31.57
2023-09-28T14:07:57.662Z,32.51
2023-09-28T14:12:59.413Z,32.90
2023-09-28T14:18:00.854Z,32.73
2023-09-28T14:23:02.329Z,32.32
2023-09-28T14:28:04.132Z,32.10
2023-09-28T14:33:05.731Z,31.59
2023-09-28T14:38:07.518Z,31.24
2023-09-28T14:43:09.048Z,31.12
2023-09-28T14:48:10.574Z,30.95
2023-09-28T14:53:13.789Z,30.92
2023-09-28T14:58:15.197Z,30.84
2023-09-28T15:03:16.795Z,30.90
2023-09-28T15:08:18.714Z,30.63
2023-09-28T15:13:20.250Z,30.74
2023-09-28T15:18:21.859Z,30.62
2023-09-28T15:23:23.345Z,30.70
2023-09-28T15:28:24.774Z,30.71
2023-09-28T15:33:26.633Z,30.53
2023-09-28T15:38:28.430Z,30.67
2023-09-28T15:43:33.577Z,30.48
2023-09-28T15:48:34.966Z,30.25
2023-09-28T15:53:36.451Z,30.06
2023-09-28T15:58:37.958Z,29.82
2023-09-28T16:03:39.922Z,29.54
2023-09-28T16:08:42.090Z,29.28
2023-09-28T16:13:43.714Z,29.08
2023-09-28T16:18:45.335Z,28.87
2023-09-28T16:23:46.825Z,28.58
2023-09-28T16:28:48.261Z,28.41
2023-09-28T16:33:49.743Z,28.18
2023-09-28T16:38:51.364Z,27.93
2023-09-28T16:43:53.694Z,27.67
2023-09-28T16:48:55.319Z,27.43
2023-09-28T16:53:56.991Z,27.14
2023-09-28T16:58:58.621Z,26.85
2023-09-28T17:04:00.177Z,26.54
2023-09-28T17:09:01.608Z,26.26
2023-09-28T17:14:03.126Z,25.99
2023-09-28T17:19:05.528Z,25.74
2023-09-28T17:24:07.432Z,25.52
2023-09-28T17:29:09.049Z,25.30
2023-09-28T17:34:11.502Z,25.06
2023-09-28T17:39:12.938Z,24.78
2023-09-28T17:44:14.409Z,24.53
2023-09-28T17:49:16.219Z,24.31
2023-09-28T17:54:17.636Z,24.20
2023-09-28T17:59:19.224Z,24.01
2023-09-28T18:04:20.720Z,23.85
2023-09-28T18:09:22.205Z,23.73
2023-09-28T18:14:23.835Z,23.54
2023-09-28T18:19:25.318Z,23.44
2023-09-28T18:24:26.721Z,23.31
2023-09-28T18:29:28.182Z,23.17
2023-09-28T18:34:32.269Z,23.04
2023-09-28T18:39:34.689Z,22.89
2023-09-28T18:44:37.332Z,22.73
2023-09-28T18:49:38.869Z,22.60
2023-09-28T18:54:42.841Z,22.46
2023-09-28T18:59:45.208Z,22.30
2023-09-28T19:04:46.865Z,22.15
2023-09-28T19:09:49.384Z,22.02
2023-09-28T19:14:50.843Z,21.88
2023-09-28T19:19:54.069Z,21.71
2023-09-28T19:24:55.539Z,21.61
2023-09-28T19:29:57.358Z,21.44
2023-09-28T19:34:58.822Z,21.37
2023-09-28T19:40:00.220Z,21.24
2023-09-28T19:45:01.686Z,21.18
2023-09-28T19:50:03.336Z,21.12
2023-09-28T19:55:05.097Z,21.05
2023-09-28T20:00:08.722Z,20.66
2023-09-28T20:05:12.014Z,20.58
2023-09-28T20:10:13.753Z,20.57
2023-09-28T20:15:15.277Z,20.54
2023-09-28T20:20:16.815Z,20.57
2023-09-28T20:25:18.431Z,20.53
2023-09-28T20:30:19.852Z,20.44
2023-09-28T20:35:21.400Z,20.36
2023-09-28T20:40:22.818Z,20.37
2023-09-28T20:45:24.212Z,20.36
2023-09-28T20:50:25.757Z,20.29
2023-09-28T20:55:27.183Z,20.28
2023-09-28T21:00:28.596Z,20.09
2023-09-28T21:05:31.390Z,20.09
2023-09-28T21:10:32.808Z,20.09
2023-09-28T21:15:34.224Z,20.07
2023-09-28T21:20:35.738Z,20.06
2023-09-28T21:25:37.334Z,20.03
2023-09-28T21:30:38.726Z,20.01
2023-09-28T21:35:40.704Z,20.00
2023-09-28T21:40:42.233Z,19.93
2023-09-28T21:45:43.785Z,19.94
2023-09-28T21:50:45.211Z,19.89
2023-09-28T21:55:46.691Z,19.83
2023-09-28T22:00:48.134Z,19.76
2023-09-28T22:05:53.586Z,19.67
2023-09-28T22:10:55.131Z,19.64
2023-09-28T22:15:56.634Z,19.58
2023-09-28T22:20:58.220Z,19.47
2023-09-28T22:25:59.687Z,19.48
2023-09-28T22:31:01.350Z,19.50
2023-09-28T22:36:02.893Z,19.53
2023-09-28T22:41:04.797Z,19.53
2023-09-28T22:46:06.594Z,19.46
2023-09-28T22:51:08.016Z,19.44
2023-09-28T22:56:09.397Z,19.40
2023-09-28T23:01:10.794Z,19.31
2023-09-28T23:06:13.084Z,19.25
2023-09-28T23:11:17.411Z,19.22
2023-09-28T23:16:19.024Z,19.20
2023-09-28T23:21:20.482Z,19.10
2023-09-28T23:26:24.385Z,18.88
2023-09-28T23:31:27.610Z,18.87
2023-09-28T23:36:29.017Z,18.81
2023-09-28T23:41:30.412Z,18.80
2023-09-28T23:46:31.797Z,18.79
2023-09-28T23:51:35.038Z,18.75
2023-09-28T23:56:40.943Z,18.70
